Time;durP1;ratioP1;P1;durP2;ratioP2;P2;SDS_P1;SDS_P2;PMS_P1;PMS_P2;Temp;Humidity;BMP_temperature;BMP_pressure;BME280_temperature;BME280_humidity;BME280_pressure;Samples;Min_cycle;Max_cycle;Signal;HPM_P1;HPM_P2
2023/05/18 00:00:52;;;;;;;1.40;0.70;;;12.60;89.40;;;;;;6296761;28;20473;-68
2023/05/18 00:03:56;;;;;;;1.17;1.07;;;12.60;89.50;;;;;;6299802;28;20469;-68
2023/05/18 00:07:02;;;;;;;1.07;0.80;;;12.70;88.60;;;;;;6304708;28;20970;-68
2023/05/18 00:10:06;;;;;;;0.70;0.63;;;12.60;89.00;;;;;;6281619;28;1131952;-70
2023/05/18 00:13:09;;;;;;;1.07;0.80;;;12.60;88.70;;;;;;6305452;28;20527;-69
2023/05/18 00:16:14;;;;;;;0.70;0.63;;;12.60;88.60;;;;;;6300818;28;20473;-69
2023/05/18 00:19:19;;;;;;;0.70;0.70;;;12.60;88.60;;;;;;6300737;28;20465;-69
2023/05/18 00:22:22;;;;;;;0.80;0.70;;;12.50;88.90;;;;;;6300435;28;20474;-68
2023/05/18 00:25:25;;;;;;;0.50;0.50;;;12.50;88.90;;;;;;6300311;28;20473;-69
2023/05/18 00:28:29;;;;;;;0.83;0.80;;;12.50;88.50;;;;;;6300178;28;20572;-68
2023/05/18 00:31:35;;;;;;;0.93;0.83;;;12.50;88.50;;;;;;6300085;28;20487;-69
2023/05/18 00:34:38;;;;;;;1.10;1.00;;;12.40;88.90;;;;;;6296182;28;20483;-68
2023/05/18 00:37:41;;;;;;;1.00;0.67;;;12.40;89.00;;;;;;6299548;28;20509;-68
2023/05/18 00:40:44;;;;;;;1.33;0.97;;;12.40;89.10;;;;;;6300216;28;20469;-67
2023/05/18 00:43:48;;;;;;;0.70;0.70;;;12.50;89.20;;;;;;6300434;28;20515;-68
2023/05/18 00:46:52;;;;;;;2.60;0.73;;;12.40;89.60;;;;;;6300215;28;20476;-68
2023/05/18 00:49:55;;;;;;;0.87;0.87;;;12.40;89.50;;;;;;6300099;28;20477;-68
2023/05/18 00:52:59;;;;;;;1.27;1.10;;;12.50;89.70;;;;;;6299741;28;20469;-68
2023/05/18 00:56:02;;;;;;;0.73;0.73;;;12.40;89.50;;;;;;6299443;28;20453;-68
2023/05/18 00:59:05;;;;;;;0.80;0.73;;;12.50;89.60;;;;;;6299162;28;20467;-67
2023/05/18 01:02:10;;;;;;;1.57;1.00;;;12.50;89.50;;;;;;6299986;28;20441;-69
2023/05/18 01:05:16;;;;;;;1.70;1.03;;;12.50;89.60;;;;;;6300516;28;20472;-69
2023/05/18 01:08:20;;;;;;;1.00;0.90;;;12.50;89.20;;;;;;6299467;28;20485;-69
2023/05/18 01:11:33;;;;;;;1.27;0.93;;;12.50;89.60;;;;;;6299904;28;20543;-69
2023/05/18 01:14:44;;;;;;;1.40;1.30;;;12.50;89.60;;;;;;6298988;28;20461;-68
2023/05/18 01:18:03;;;;;;;1.50;1.20;;;12.50;89.70;;;;;;6299491;28;20873;-68
2023/05/18 01:21:18;;;;;;;1.03;0.80;;;12.50;89.60;;;;;;6299409;28;20825;-67
2023/05/18 01:24:32;;;;;;;0.90;0.90;;;12.50;89.60;;;;;;6299576;28;20626;-67
2023/05/18 01:27:41;;;;;;;2.80;1.10;;;12.50;89.80;;;;;;6299581;28;20506;-67
2023/05/18 01:30:45;;;;;;;1.30;1.20;;;12.50;90.00;;;;;;6299516;28;20473;-68
2023/05/18 01:33:48;;;;;;;1.40;1.07;;;12.50;90.00;;;;;;6299418;28;20469;-68
2023/05/18 01:36:51;;;;;;;1.37;1.13;;;12.50;90.00;;;;;;6299365;28;20771;-68
2023/05/18 01:39:55;;;;;;;1.63;1.10;;;12.50;89.80;;;;;;6294739;28;20469;-68
2023/05/18 01:43:04;;;;;;;1.33;1.23;;;12.50;89.60;;;;;;6299570;28;20476;-68
2023/05/18 01:46:17;;;;;;;1.60;1.50;;;12.50;89.90;;;;;;6299644;28;20858;-69
2023/05/18 01:49:27;;;;;;;1.30;1.20;;;12.50;90.00;;;;;;6302079;28;20481;-69
2023/05/18 01:52:35;;;;;;;1.73;1.63;;;12.50;89.80;;;;;;6304457;28;20483;-69
2023/05/18 01:55:40;;;;;;;1.73;1.63;;;12.50;90.30;;;;;;6304386;28;20476;-69
2023/05/18 01:58:44;;;;;;;1.40;1.20;;;12.40;90.00;;;;;;6303977;28;20475;-68
2023/05/18 02:01:48;;;;;;;1.60;1.40;;;12.40;90.10;;;;;;6304257;28;20464;-68
2023/05/18 02:04:51;;;;;;;1.80;1.47;;;12.40;90.30;;;;;;6304128;28;20986;-68
2023/05/18 02:07:54;;;;;;;1.73;1.50;;;12.40;90.30;;;;;;6303932;28;21126;-68
2023/05/18 02:10:57;;;;;;;1.30;1.20;;;12.40;90.40;;;;;;6303654;28;20549;-68
2023/05/18 02:14:02;;;;;;;1.73;1.30;;;12.40;90.30;;;;;;6303777;28;20457;-68
2023/05/18 02:17:06;;;;;;;1.40;1.30;;;12.40;90.40;;;;;;6304140;28;20447;-68
2023/05/18 02:20:10;;;;;;;1.50;1.40;;;12.40;90.80;;;;;;6303341;28;20467;-69
2023/05/18 02:23:13;;;;;;;2.20;1.40;;;12.40;90.50;;;;;;6303856;28;20437;-68
2023/05/18 02:26:16;;;;;;;1.70;1.60;;;12.40;90.40;;;;;;6303624;28;20437;-69
2023/05/18 02:29:21;;;;;;;1.40;1.30;;;12.40;90.60;;;;;;6310310;28;20492;-68
2023/05/18 02:32:24;;;;;;;2.40;1.43;;;12.40;90.80;;;;;;6324222;28;20528;-69
2023/05/18 02:35:27;;;;;;;2.40;1.60;;;12.40;90.70;;;;;;6306142;28;20554;-69
2023/05/18 02:38:31;;;;;;;2.20;1.77;;;12.40;90.60;;;;;;6303465;28;20471;-69
2023/05/18 02:41:34;;;;;;;3.07;1.87;;;12.30;90.70;;;;;;6298461;28;20770;-69
2023/05/18 02:44:38;;;;;;;2.17;1.70;;;12.30;91.20;;;;;;6302838;28;20493;-69
2023/05/18 02:47:42;;;;;;;3.33;1.93;;;12.30;91.00;;;;;;6302938;28;20481;-69
2023/05/18 02:50:48;;;;;;;2.03;1.83;;;12.30;90.90;;;;;;6302706;28;20473;-68
2023/05/18 02:53:52;;;;;;;1.77;1.67;;;12.20;91.00;;;;;;6302879;28;20809;-69
2023/05/18 02:56:57;;;;;;;3.47;2.03;;;12.20;91.00;;;;;;6302544;28;20468;-69
2023/05/18 03:00:08;;;;;;;4.80;2.00;;;12.20;91.00;;;;;;6302321;28;20469;-68
2023/05/18 03:03:14;;;;;;;2.93;2.00;;;12.10;91.30;;;;;;6302294;28;20466;-69
2023/05/18 03:06:21;;;;;;;3.40;2.27;;;12.20;91.50;;;;;;6303040;28;20476;-69
2023/05/18 03:09:24;;;;;;;3.10;2.90;;;12.20;91.40;;;;;;6302156;28;20797;-69
2023/05/18 03:12:27;;;;;;;2.73;2.10;;;12.20;91.60;;;;;;6302559;28;20469;-69
2023/05/18 03:15:32;;;;;;;2.30;2.00;;;12.10;91.60;;;;;;6302193;28;20971;-69
2023/05/18 03:18:35;;;;;;;2.97;2.30;;;12.10;91.50;;;;;;6301939;28;20457;-68
2023/05/18 03:21:38;;;;;;;3.53;2.13;;;12.10;91.60;;;;;;6302082;28;20472;-68
2023/05/18 03:24:42;;;;;;;2.47;2.27;;;12.10;91.90;;;;;;6302134;28;20963;-68
2023/05/18 03:27:45;;;;;;;3.83;2.50;;;12.10;92.00;;;;;;6301937;28;21032;-69
2023/05/18 03:30:50;;;;;;;3.37;2.07;;;12.10;92.00;;;;;;6301846;28;20473;-69
2023/05/18 03:33:53;;;;;;;3.03;2.50;;;12.10;92.10;;;;;;6301876;28;20471;-69
2023/05/18 03:36:56;;;;;;;2.23;1.83;;;12.10;92.10;;;;;;6301910;28;20469;-69
2023/05/18 03:40:09;;;;;;;3.00;2.40;;;12.10;92.10;;;;;;6304215;28;20557;-68
2023/05/18 03:43:12;;;;;;;2.80;1.87;;;12.20;92.30;;;;;;6305339;28;20476;-69
2023/05/18 03:46:16;;;;;;;2.43;2.23;;;12.20;92.30;;;;;;6306428;28;20481;-68
2023/05/18 03:49:20;;;;;;;3.97;2.00;;;12.20;92.40;;;;;;6303738;28;20490;-68
2023/05/18 03:52:23;;;;;;;2.97;2.67;;;12.20;92.40;;;;;;6301634;28;20465;-69
2023/05/18 03:55:26;;;;;;;2.23;1.90;;;12.20;92.40;;;;;;6301086;28;20487;-69
2023/05/18 03:58:29;;;;;;;2.40;1.87;;;12.20;92.40;;;;;;6301319;28;20975;-69
2023/05/18 04:01:34;;;;;;;1.70;1.60;;;12.30;92.40;;;;;;6301108;28;20611;-67
2023/05/18 04:04:40;;;;;;;2.37;2.13;;;12.20;92.40;;;;;;6301078;28;20487;-68
2023/05/18 04:07:45;;;;;;;2.87;2.10;;;12.20;92.40;;;;;;6300767;28;20469;-68
2023/05/18 04:10:48;;;;;;;2.13;1.93;;;12.20;92.40;;;;;;6299888;28;20611;-69
2023/05/18 04:13:51;;;;;;;2.53;2.00;;;12.20;92.50;;;;;;6301045;28;20475;-69
2023/05/18 04:16:57;;;;;;;2.23;2.03;;;12.30;92.60;;;;;;6300619;28;20553;-67
2023/05/18 04:20:02;;;;;;;3.57;2.13;;;12.30;92.40;;;;;;6300520;28;20473;-66
2023/05/18 04:23:08;;;;;;;2.83;2.00;;;12.30;92.20;;;;;;6300403;28;20457;-67
2023/05/18 04:26:11;;;;;;;2.60;1.87;;;12.30;92.20;;;;;;6300463;28;20826;-67
2023/05/18 04:29:16;;;;;;;3.60;2.47;;;12.30;92.40;;;;;;6300503;28;20480;-67
2023/05/18 04:32:20;;;;;;;2.80;2.10;;;12.30;92.50;;;;;;6300518;28;20465;-67
2023/05/18 04:35:24;;;;;;;1.97;1.87;;;12.40;92.50;;;;;;6300582;28;20461;-68
2023/05/18 04:38:27;;;;;;;2.37;2.17;;;12.40;92.40;;;;;;6300454;28;20956;-68
2023/05/18 04:41:32;;;;;;;2.47;2.27;;;12.50;92.20;;;;;;6300714;28;20469;-68
2023/05/18 04:44:37;;;;;;;3.13;2.10;;;12.60;92.30;;;;;;6300270;28;20461;-68
2023/05/18 04:47:45;;;;;;;3.27;2.00;;;12.70;92.80;;;;;;6300693;28;20473;-68
2023/05/18 04:50:49;;;;;;;2.53;1.80;;;12.80;93.10;;;;;;6292866;28;20465;-68
2023/05/18 04:53:52;;;;;;;2.37;1.90;;;12.90;92.90;;;;;;6322306;28;20461;-67
2023/05/18 04:56:55;;;;;;;2.63;1.97;;;13.00;92.80;;;;;;6309728;28;20484;-67
2023/05/18 04:59:58;;;;;;;1.87;1.77;;;13.10;93.00;;;;;;6300344;28;20488;-67
2023/05/18 05:03:03;;;;;;;2.07;1.87;;;13.20;93.10;;;;;;6299919;28;20469;-68
2023/05/18 05:06:07;;;;;;;2.77;2.00;;;13.40;92.80;;;;;;6300154;28;20469;-68
2023/05/18 05:09:12;;;;;;;2.50;2.07;;;13.50;92.90;;;;;;6299052;28;21054;-67
2023/05/18 05:12:17;;;;;;;3.00;1.83;;;13.50;92.80;;;;;;6300069;28;20469;-68
2023/05/18 05:15:20;;;;;;;2.33;1.80;;;13.70;92.90;;;;;;6299764;28;20986;-68
2023/05/18 05:18:25;;;;;;;3.60;1.83;;;13.80;92.40;;;;;;6299962;28;20941;-68
2023/05/18 05:21:28;;;;;;;1.80;1.63;;;14.00;92.50;;;;;;6299607;28;20477;-68
2023/05/18 05:24:31;;;;;;;2.07;1.67;;;14.10;92.60;;;;;;6299339;28;20940;-68
2023/05/18 05:27:35;;;;;;;1.93;1.50;;;14.20;92.60;;;;;;6299673;28;20471;-69
2023/05/18 05:30:38;;;;;;;2.60;2.07;;;14.30;92.70;;;;;;6299628;28;20469;-67
2023/05/18 05:33:44;;;;;;;2.70;2.00;;;14.40;92.30;;;;;;6299806;28;20480;-68
2023/05/18 05:36:47;;;;;;;4.30;2.30;;;14.50;92.10;;;;;;6299513;28;20473;-68
2023/05/18 05:39:50;;;;;;;2.30;2.10;;;14.70;92.10;;;;;;6299826;28;20469;-67
2023/05/18 05:42:54;;;;;;;2.63;1.93;;;14.90;91.70;;;;;;6299134;28;20630;-67
2023/05/18 05:45:57;;;;;;;2.10;1.60;;;15.00;91.40;;;;;;6299174;28;20469;-68
2023/05/18 05:49:02;;;;;;;2.13;1.47;;;15.10;91.30;;;;;;6298866;28;20984;-67
2023/05/18 05:52:06;;;;;;;3.10;1.80;;;15.20;91.00;;;;;;6298924;28;20461;-67
2023/05/18 05:55:09;;;;;;;1.70;1.53;;;15.30;90.90;;;;;;6289646;28;20558;-67
2023/05/18 05:58:13;;;;;;;1.80;1.40;;;15.50;91.10;;;;;;6299268;28;20479;-67
2023/05/18 06:01:16;;;;;;;4.70;1.90;;;15.70;90.50;;;;;;6298877;28;20848;-67
2023/05/18 06:04:21;;;;;;;1.20;1.10;;;16.30;90.20;;;;;;6299637;28;20465;-67
2023/05/18 06:07:24;;;;;;;1.47;1.37;;;16.90;87.60;;;;;;6299283;28;20651;-68
2023/05/18 06:10:27;;;;;;;1.40;1.20;;;17.50;85.40;;;;;;6299322;28;20634;-68
2023/05/18 06:13:30;;;;;;;1.27;0.97;;;18.00;83.80;;;;;;6298848;28;20500;-68
2023/05/18 06:16:34;;;;;;;1.57;1.37;;;18.70;81.40;;;;;;6298293;28;20465;-68
2023/05/18 06:19:38;;;;;;;1.33;1.23;;;19.40;79.40;;;;;;6299205;28;20539;-67
2023/05/18 06:22:42;;;;;;;1.33;1.10;;;20.10;76.10;;;;;;6298984;28;20733;-68
2023/05/18 06:25:46;;;;;;;1.40;1.30;;;20.40;73.40;;;;;;6298918;28;20230;-68
2023/05/18 06:28:49;;;;;;;1.70;1.60;;;19.90;72.40;;;;;;6298794;28;20241;-67
2023/05/18 06:31:52;;;;;;;1.40;0.93;;;19.60;73.20;;;;;;6298782;28;20227;-68
2023/05/18 06:34:57;;;;;;;1.60;1.50;;;19.40;72.70;;;;;;6300649;28;20264;-68
2023/05/18 06:38:00;;;;;;;1.33;1.23;;;19.20;72.70;;;;;;6303438;28;20245;-68
2023/05/18 06:41:03;;;;;;;1.70;1.43;;;19.00;73.00;;;;;;6303227;28;20233;-67
2023/05/18 06:44:06;;;;;;;1.23;1.13;;;18.80;73.20;;;;;;6304322;28;20199;-69
2023/05/18 06:47:10;;;;;;;2.00;1.50;;;18.60;72.90;;;;;;6308951;28;20541;-69
2023/05/18 06:50:14;;;;;;;2.03;1.50;;;18.50;73.80;;;;;;6304246;28;20241;-68
2023/05/18 06:53:17;;;;;;;1.77;1.53;;;18.50;74.00;;;;;;6303767;28;20217;-70
2023/05/18 06:56:21;;;;;;;1.73;1.63;;;18.50;72.90;;;;;;6299305;28;20286;-70
2023/05/18 06:59:24;;;;;;;1.63;1.53;;;18.50;73.70;;;;;;6302612;28;20233;-69
2023/05/18 07:02:27;;;;;;;2.50;1.90;;;18.70;73.70;;;;;;6303320;28;20278;-69
2023/05/18 07:05:32;;;;;;;0.90;0.90;;;18.60;73.20;;;;;;6302892;28;20457;-69
2023/05/18 07:08:39;;;;;;;2.40;1.50;;;18.60;73.70;;;;;;6302690;28;20542;-67
2023/05/18 07:11:44;;;;;;;1.23;1.00;;;18.60;72.10;;;;;;6303241;28;20242;-68
2023/05/18 07:14:47;;;;;;;1.07;0.97;;;18.50;71.00;;;;;;6302324;28;20223;-68
2023/05/18 07:17:50;;;;;;;1.07;0.93;;;18.20;71.50;;;;;;6305739;28;20548;-69
2023/05/18 07:20:55;;;;;;;2.17;1.10;;;18.30;72.20;;;;;;6327491;28;20473;-68
2023/05/18 07:23:58;;;;;;;1.50;1.37;;;18.40;72.40;;;;;;6314714;28;20506;-68
2023/05/18 07:27:01;;;;;;;1.37;1.27;;;18.70;71.70;;;;;;6302699;28;20925;-68
2023/05/18 07:30:06;;;;;;;1.80;1.40;;;18.90;71.70;;;;;;6302482;28;20536;-68
2023/05/18 07:33:10;;;;;;;1.30;1.20;;;19.00;71.20;;;;;;6302224;28;20238;-68
2023/05/18 07:36:14;;;;;;;1.43;1.33;;;19.20;71.30;;;;;;6302431;28;20233;-68
2023/05/18 07:39:18;;;;;;;1.30;1.10;;;19.40;70.70;;;;;;6303813;28;20226;-67
2023/05/18 07:42:21;;;;;;;2.30;1.50;;;19.50;70.00;;;;;;6302397;28;20234;-68
2023/05/18 07:45:25;;;;;;;1.50;1.10;;;19.80;69.50;;;;;;6301151;28;20616;-68
2023/05/18 07:48:28;;;;;;;1.50;1.30;;;20.20;68.30;;;;;;6300416;28;20234;-68
2023/05/18 07:51:33;;;;;;;1.30;1.20;;;20.70;66.10;;;;;;6300275;28;20227;-67
2023/05/18 07:54:36;;;;;;;1.50;1.40;;;21.20;64.90;;;;;;6300458;28;20235;-68
2023/05/18 07:57:40;;;;;;;2.07;1.50;;;21.60;64.40;;;;;;6301363;28;20317;-69
2023/05/18 08:00:44;;;;;;;1.70;1.37;;;21.70;61.70;;;;;;6299976;28;20230;-69
2023/05/18 08:03:47;;;;;;;2.20;1.43;;;21.70;65.20;;;;;;6300240;28;20227;-68
2023/05/18 08:06:55;;;;;;;1.80;1.67;;;21.40;63.80;;;;;;6301318;28;20712;-68
2023/05/18 08:09:58;;;;;;;2.57;1.57;;;21.20;62.30;;;;;;6301150;28;20375;-68
2023/05/18 08:13:01;;;;;;;1.20;1.10;;;21.10;62.80;;;;;;6300989;28;20242;-67
2023/05/18 08:16:05;;;;;;;2.20;1.47;;;21.00;63.60;;;;;;6300370;28;20260;-68
2023/05/18 08:19:14;;;;;;;1.90;1.80;;;20.90;63.70;;;;;;6302021;28;20242;-67
2023/05/18 08:22:19;;;;;;;1.70;1.60;;;20.90;63.70;;;;;;6303525;28;20227;-67
2023/05/18 08:25:22;;;;;;;1.33;1.23;;;21.00;64.40;;;;;;6299801;28;20313;-67
2023/05/18 08:28:26;;;;;;;1.30;1.20;;;21.10;63.50;;;;;;6299593;28;20230;-67
2023/05/18 08:31:29;;;;;;;2.97;1.27;;;21.10;60.90;;;;;;6299388;28;20526;-67
2023/05/18 08:34:32;;;;;;;2.27;1.30;;;21.00;61.50;;;;;;6298373;28;20667;-67
2023/05/18 08:37:38;;;;;;;1.40;1.10;;;20.90;60.20;;;;;;6320617;28;20287;-66
2023/05/18 08:40:47;;;;;;;2.00;1.57;;;20.70;61.60;;;;;;6310778;28;20234;-66
2023/05/18 08:43:59;;;;;;;2.30;1.03;;;20.70;60.90;;;;;;6301256;28;20223;-67
2023/05/18 08:47:03;;;;;;;1.07;0.90;;;20.80;60.80;;;;;;6300262;28;20235;-67
2023/05/18 08:50:12;;;;;;;3.47;1.37;;;20.70;60.80;;;;;;6298977;28;20658;-67
2023/05/18 08:53:18;;;;;;;1.00;0.90;;;20.30;61.50;;;;;;6300122;28;20215;-67
2023/05/18 08:56:23;;;;;;;1.00;0.90;;;19.90;62.30;;;;;;6300279;28;20613;-68
2023/05/18 08:59:30;;;;;;;1.33;1.13;;;19.90;62.80;;;;;;6300123;28;20595;-67
2023/05/18 09:02:34;;;;;;;2.17;1.77;;;19.60;63.40;;;;;;6300705;28;20233;-67
2023/05/18 09:05:38;;;;;;;1.20;1.10;;;19.90;64.10;;;;;;6291325;28;20230;-67
2023/05/18 09:08:45;;;;;;;1.63;1.00;;;20.30;62.60;;;;;;6298541;28;20227;-66
2023/05/18 09:11:50;;;;;;;1.20;1.10;;;20.50;61.90;;;;;;6299614;28;20230;-66
2023/05/18 09:14:54;;;;;;;1.37;1.17;;;20.80;62.90;;;;;;6299795;28;20227;-67
2023/05/18 09:17:57;;;;;;;1.33;1.10;;;21.10;60.10;;;;;;6299955;28;20309;-68
2023/05/18 09:21:00;;;;;;;0.90;0.70;;;21.40;59.70;;;;;;6299288;28;20262;-67
2023/05/18 09:24:05;;;;;;;1.10;1.00;;;21.70;59.20;;;;;;6298475;28;20230;-67
2023/05/18 09:27:09;;;;;;;1.50;0.87;;;22.00;59.60;;;;;;6288428;28;20226;-67
2023/05/18 09:30:13;;;;;;;1.53;1.33;;;22.30;58.50;;;;;;6299574;28;20237;-67
2023/05/18 09:33:17;;;;;;;1.10;1.00;;;22.60;62.00;;;;;;6299602;28;20241;-67
2023/05/18 09:36:27;;;;;;;1.20;0.90;;;22.80;60.30;;;;;;6299685;28;20230;-68
2023/05/18 09:39:31;;;;;;;1.00;0.80;;;23.00;55.80;;;;;;6299511;28;20328;-67
2023/05/18 09:42:38;;;;;;;1.87;1.67;;;23.00;54.80;;;;;;6298897;28;20254;-67
2023/05/18 09:45:43;;;;;;;1.30;1.10;;;23.00;54.50;;;;;;6298514;28;20219;-68
2023/05/18 09:48:50;;;;;;;1.97;1.10;;;22.70;54.90;;;;;;6297007;28;20214;-66
2023/05/18 09:51:53;;;;;;;1.50;1.37;;;23.30;54.90;;;;;;6293404;28;20301;-68
2023/05/18 09:55:01;;;;;;;1.17;0.97;;;23.80;54.10;;;;;;6287406;28;20218;-68
2023/05/18 09:58:06;;;;;;;1.40;1.17;;;24.10;53.70;;;;;;6285255;28;20223;-68
2023/05/18 10:01:10;;;;;;;1.20;1.03;;;24.30;52.00;;;;;;6287322;28;20685;-68
2023/05/18 10:04:13;;;;;;;1.20;0.97;;;24.50;51.40;;;;;;6284539;28;20292;-69
2023/05/18 10:07:17;;;;;;;1.07;0.97;;;24.80;51.20;;;;;;6285646;28;20227;-68
2023/05/18 10:10:23;;;;;;;1.10;0.73;;;25.20;50.10;;;;;;6282394;28;20242;-68
2023/05/18 10:13:30;;;;;;;1.93;1.13;;;25.30;49.20;;;;;;6289902;28;20233;-68
2023/05/18 10:16:33;;;;;;;1.43;1.07;;;25.50;49.10;;;;;;6291164;28;20240;-73
2023/05/18 10:19:40;;;;;;;2.00;1.43;;;25.70;48.30;;;;;;6296054;28;20218;-72
2023/05/18 10:22:45;;;;;;;0.90;0.80;;;25.20;48.70;;;;;;6291877;28;20230;-73
2023/05/18 10:25:51;;;;;;;1.00;0.83;;;25.10;48.00;;;;;;6285411;28;20223;-67
2023/05/18 10:28:56;;;;;;;1.20;1.00;;;25.30;47.90;;;;;;6304012;28;20585;-72
2023/05/18 10:32:02;;;;;;;1.33;1.20;;;24.80;48.20;;;;;;6303513;28;20349;-71
2023/05/18 10:35:10;;;;;;;1.27;0.77;;;24.60;48.50;;;;;;6302694;28;20218;-71
2023/05/18 10:38:15;;;;;;;1.37;1.07;;;24.60;48.70;;;;;;6302085;28;20222;-70
2023/05/18 10:41:22;;;;;;;1.73;1.20;;;24.20;48.40;;;;;;6298245;28;20227;-71
2023/05/18 10:44:25;;;;;;;1.40;1.20;;;24.40;48.40;;;;;;6301371;28;20241;-72
2023/05/18 10:47:29;;;;;;;1.20;1.00;;;24.20;48.70;;;;;;6301612;28;20223;-72
2023/05/18 10:50:33;;;;;;;1.67;1.57;;;24.10;48.90;;;;;;6300746;28;20233;-72
2023/05/18 10:53:37;;;;;;;0.97;0.80;;;24.10;49.40;;;;;;6294324;28;20231;-72
2023/05/18 10:56:46;;;;;;;1.43;1.00;;;23.70;49.80;;;;;;6299234;28;20238;-71
2023/05/18 10:59:50;;;;;;;2.00;0.93;;;23.70;49.70;;;;;;6301858;28;20231;-70
2023/05/18 11:02:54;;;;;;;1.07;0.93;;;23.80;49.60;;;;;;6303110;28;20234;-71
2023/05/18 11:06:06;;;;;;;1.30;1.20;;;24.00;50.10;;;;;;6302925;28;20219;-70
2023/05/18 11:09:22;;;;;;;1.43;0.97;;;23.60;49.80;;;;;;6305071;28;20242;-70
2023/05/18 11:12:27;;;;;;;1.70;1.50;;;23.70;50.30;;;;;;6307352;28;20310;-71
2023/05/18 11:16:05;;;;;;;1.10;0.90;;;23.80;50.20;;;;;;6302733;28;20237;-72
2023/05/18 11:19:10;;;;;;;1.33;1.10;;;23.70;49.60;;;;;;6301780;28;20546;-70
2023/05/18 11:22:13;;;;;;;1.30;1.07;;;23.70;50.70;;;;;;6303962;28;20219;-70
2023/05/18 11:25:44;;;;;;;1.30;1.20;;;23.80;50.60;;;;;;6303554;28;20309;-70
2023/05/18 11:28:52;;;;;;;1.50;1.37;;;23.70;50.00;;;;;;6302091;28;20231;-71
2023/05/18 11:31:55;;;;;;;1.30;1.10;;;23.70;50.20;;;;;;6302169;28;20279;-71
2023/05/18 11:34:59;;;;;;;1.60;1.50;;;24.10;51.20;;;;;;6302438;28;20318;-72
2023/05/18 11:38:08;;;;;;;1.70;1.10;;;24.10;50.30;;;;;;6302200;28;20236;-72
2023/05/18 11:41:27;;;;;;;1.57;1.00;;;24.30;49.80;;;;;;6302545;28;20298;-71
2023/05/18 11:44:32;;;;;;;1.70;1.37;;;24.50;49.80;;;;;;6301759;28;20234;-72
2023/05/18 11:47:36;;;;;;;1.77;1.20;;;24.50;49.40;;;;;;6301429;28;20372;-72
2023/05/18 11:50:46;;;;;;;1.20;1.00;;;24.40;49.10;;;;;;6301793;28;20559;-72
2023/05/18 11:53:49;;;;;;;1.80;1.00;;;24.30;49.00;;;;;;6301359;28;20556;-71
2023/05/18 11:56:53;;;;;;;1.27;0.90;;;23.90;49.10;;;;;;6301501;28;20559;-73
2023/05/18 11:59:58;;;;;;;1.67;1.50;;;23.70;50.20;;;;;;6301538;28;20302;-71
2023/05/18 12:03:02;;;;;;;2.00;1.60;;;23.20;51.30;;;;;;6301104;28;20237;-72
2023/05/18 12:06:07;;;;;;;2.30;1.40;;;22.90;51.50;;;;;;6302119;28;20234;-72
2023/05/18 12:09:10;;;;;;;1.50;1.30;;;22.30;52.90;;;;;;6302299;28;20257;-71
2023/05/18 12:12:16;;;;;;;1.73;1.63;;;21.90;55.20;;;;;;6301366;28;20238;-72
2023/05/18 12:15:24;;;;;;;1.93;1.73;;;21.40;57.40;;;;;;6301700;28;20338;-71
2023/05/18 12:18:29;;;;;;;2.20;1.40;;;21.00;59.20;;;;;;6301049;28;20215;-72
2023/05/18 12:21:35;;;;;;;1.87;1.77;;;20.40;61.90;;;;;;6301023;28;20314;-70
2023/05/18 12:24:39;;;;;;;1.90;1.70;;;20.10;62.70;;;;;;6298973;28;20302;-72
2023/05/18 12:27:44;;;;;;;2.23;2.03;;;19.70;64.30;;;;;;6298636;28;20227;-72
2023/05/18 12:30:48;;;;;;;2.43;2.23;;;19.40;66.10;;;;;;6300743;28;20230;-72
2023/05/18 12:33:54;;;;;;;2.27;2.07;;;19.60;66.20;;;;;;6293922;28;20234;-69
2023/05/18 12:37:01;;;;;;;3.70;1.93;;;19.60;66.70;;;;;;6300081;28;20669;-72
2023/05/18 12:40:05;;;;;;;2.20;2.00;;;19.40;67.70;;;;;;6299962;28;20321;-67
2023/05/18 12:43:09;;;;;;;1.93;1.83;;;18.90;70.00;;;;;;6299976;28;20227;-67
2023/05/18 12:46:13;;;;;;;1.93;1.80;;;18.90;71.40;;;;;;6299503;28;20227;-67
2023/05/18 12:49:19;;;;;;;2.43;1.87;;;19.10;71.20;;;;;;6299667;28;20314;-69
2023/05/18 12:52:22;;;;;;;1.77;1.63;;;19.40;70.60;;;;;;6298937;28;20238;-68
2023/05/18 12:55:25;;;;;;;2.23;2.03;;;19.70;70.10;;;;;;6299660;28;20223;-69
2023/05/18 12:58:28;;;;;;;5.43;2.53;;;19.90;69.70;;;;;;6299814;28;20539;-68
2023/05/18 13:01:42;;;;;;;2.83;2.53;;;20.10;69.70;;;;;;6299239;28;20272;-68
2023/05/18 13:04:45;;;;;;;2.60;2.40;;;19.90;71.30;;;;;;6299751;28;20231;-68
2023/05/18 13:07:49;;;;;;;3.33;2.80;;;19.90;70.70;;;;;;6299138;28;20288;-68
2023/05/18 13:10:52;;;;;;;2.83;2.63;;;20.10;70.00;;;;;;6299253;28;20234;-68
2023/05/18 13:14:14;;;;;;;4.33;2.93;;;20.10;69.90;;;;;;6299477;28;20230;-68
2023/05/18 13:17:23;;;;;;;3.73;3.10;;;20.30;70.80;;;;;;6299686;28;20741;-69
2023/05/18 13:20:34;;;;;;;5.03;3.83;;;20.30;69.50;;;;;;6301872;28;20644;-68
2023/05/18 13:23:39;;;;;;;6.53;4.40;;;20.00;70.80;;;;;;6309813;28;20231;-68
2023/05/18 13:26:43;;;;;;;4.97;4.43;;;19.70;72.10;;;;;;6316747;28;20227;-67
2023/05/18 13:29:46;;;;;;;4.80;4.40;;;19.30;73.20;;;;;;6301866;28;20222;-68
2023/05/18 13:32:51;;;;;;;5.20;4.50;;;19.10;75.00;;;;;;6303413;28;20714;-68
2023/05/18 13:35:54;;;;;;;6.50;4.10;;;19.20;74.90;;;;;;6323775;28;20231;-68
2023/05/18 13:38:58;;;;;;;4.87;4.47;;;19.30;75.40;;;;;;6310065;28;20313;-69
2023/05/18 13:42:01;;;;;;;6.07;4.30;;;19.30;75.50;;;;;;6301054;28;20231;-68
2023/05/18 13:45:05;;;;;;;4.47;4.10;;;19.30;75.60;;;;;;6303300;28;20226;-68
2023/05/18 13:48:13;;;;;;;5.10;4.60;;;19.00;75.80;;;;;;6304730;28;20360;-67
2023/05/18 13:51:16;;;;;;;4.80;3.90;;;18.90;76.60;;;;;;6304381;28;20288;-68
2023/05/18 13:54:20;;;;;;;6.20;4.30;;;19.00;76.20;;;;;;6304348;28;20283;-67
2023/05/18 13:57:25;;;;;;;4.50;4.10;;;19.10;75.40;;;;;;6304679;28;20234;-69
2023/05/18 14:00:28;;;;;;;5.53;4.53;;;19.00;75.90;;;;;;6304164;28;20230;-68
2023/05/18 14:03:35;;;;;;;4.30;3.87;;;18.90;76.50;;;;;;6304442;28;20227;-68
2023/05/18 14:06:38;;;;;;;5.00;4.50;;;19.00;76.20;;;;;;6303831;28;20333;-68
2023/05/18 14:09:43;;;;;;;4.00;3.53;;;19.30;75.90;;;;;;6303798;28;20258;-69
2023/05/18 14:12:46;;;;;;;5.00;4.50;;;19.30;75.30;;;;;;6303764;28;20230;-67
2023/05/18 14:15:49;;;;;;;5.03;4.17;;;19.30;75.10;;;;;;6303749;28;20231;-67
2023/05/18 14:18:54;;;;;;;5.70;4.23;;;19.30;75.20;;;;;;6303936;28;20317;-68
2023/05/18 14:21:57;;;;;;;4.93;4.43;;;19.20;75.70;;;;;;6304087;28;20231;-68
2023/05/18 14:25:00;;;;;;;4.87;4.17;;;19.00;76.60;;;;;;6294827;28;20235;-68
2023/05/18 14:28:04;;;;;;;5.23;4.40;;;19.10;77.10;;;;;;6303471;28;20235;-68
2023/05/18 14:31:07;;;;;;;5.27;4.87;;;19.10;76.50;;;;;;6303156;28;20241;-68
2023/05/18 14:34:11;;;;;;;5.47;4.60;;;19.00;76.40;;;;;;6303606;28;20253;-68
2023/05/18 14:37:15;;;;;;;6.60;5.70;;;19.10;76.60;;;;;;6303039;28;20223;-68
2023/05/18 14:40:18;;;;;;;5.03;4.53;;;19.20;76.50;;;;;;6303290;28;20230;-67
2023/05/18 14:43:21;;;;;;;4.97;4.47;;;19.30;76.40;;;;;;6303168;28;20222;-69
2023/05/18 14:46:25;;;;;;;8.03;4.80;;;19.10;76.60;;;;;;6303015;28;20555;-67
2023/05/18 14:49:29;;;;;;;5.23;4.67;;;18.90;76.80;;;;;;6302791;28;20299;-68
2023/05/18 14:52:32;;;;;;;5.37;4.43;;;18.80;77.30;;;;;;6303071;28;20234;-67
2023/05/18 14:55:35;;;;;;;4.90;4.50;;;19.00;78.50;;;;;;6302448;28;20230;-67
2023/05/18 14:58:38;;;;;;;4.67;4.20;;;19.30;77.70;;;;;;6302715;28;20240;-66
2023/05/18 15:01:43;;;;;;;4.57;3.90;;;19.40;76.30;;;;;;6302772;28;20569;-68
2023/05/18 15:04:47;;;;;;;4.83;4.33;;;19.50;76.80;;;;;;6302530;28;20227;-67
2023/05/18 15:07:50;;;;;;;5.70;4.70;;;19.50;76.80;;;;;;6302428;28;20262;-67
2023/05/18 15:10:54;;;;;;;4.73;4.43;;;19.50;77.20;;;;;;6302289;28;20322;-67
2023/05/18 15:13:57;;;;;;;4.97;4.47;;;19.50;76.40;;;;;;6302178;28;20507;-67
2023/05/18 15:17:00;;;;;;;6.43;4.63;;;19.30;76.30;;;;;;6301865;28;20666;-67
2023/05/18 15:20:06;;;;;;;5.00;4.43;;;19.00;76.80;;;;;;6278088;28;20239;-67
2023/05/18 15:23:10;;;;;;;4.53;3.90;;;18.80;76.90;;;;;;6277136;28;20515;-67
2023/05/18 15:26:13;;;;;;;5.20;4.70;;;18.80;77.30;;;;;;6281956;28;20199;-67
2023/05/18 15:29:16;;;;;;;6.97;3.63;;;18.80;77.10;;;;;;6301675;28;20563;-66
2023/05/18 15:32:19;;;;;;;4.67;4.17;;;18.80;77.60;;;;;;6301871;28;20209;-67
2023/05/18 15:35:24;;;;;;;4.00;3.60;;;19.00;78.80;;;;;;6301611;28;20313;-67
2023/05/18 15:38:27;;;;;;;4.93;4.43;;;19.10;78.00;;;;;;6301811;28;20306;-67
2023/05/18 15:41:33;;;;;;;4.03;3.67;;;19.20;78.00;;;;;;6301258;28;20646;-67
2023/05/18 15:44:36;;;;;;;5.50;4.17;;;19.20;78.20;;;;;;6301610;28;20223;-67
2023/05/18 15:47:41;;;;;;;5.00;4.40;;;19.30;77.10;;;;;;6301342;28;20662;-67
2023/05/18 15:50:46;;;;;;;4.90;4.40;;;19.10;77.10;;;;;;6301822;28;20709;-67
2023/05/18 15:53:49;;;;;;;5.67;5.07;;;18.40;78.80;;;;;;6302015;28;20231;-68
2023/05/18 15:56:52;;;;;;;6.30;4.00;;;18.20;79.80;;;;;;6301344;28;20920;-68
2023/05/18 15:59:56;;;;;;;5.30;4.80;;;18.10;80.40;;;;;;6301522;28;20231;-68
2023/05/18 16:02:59;;;;;;;5.00;4.37;;;18.00;81.00;;;;;;6304244;28;20461;-68